createdAt,value
2023-01-19T00:00:01.980Z,21.00
2023-01-19T00:01:01.933Z,21.80
2023-01-19T00:02:01.917Z,20.60
2023-01-19T00:03:01.978Z,21.00
2023-01-19T00:04:01.900Z,21.70
2023-01-19T00:05:01.903Z,22.10
2023-01-19T00:06:01.907Z,21.70
2023-01-19T00:07:01.851Z,20.90
2023-01-19T00:08:02.239Z,22.10
2023-01-19T00:09:01.832Z,22.30
2023-01-19T00:10:01.855Z,21.50
2023-01-19T00:11:01.840Z,20.30
2023-01-19T00:12:01.825Z,21.20
2023-01-19T00:13:02.113Z,21.70
2023-01-19T00:14:01.793Z,21.80
2023-01-19T00:15:01.784Z,20.60
2023-01-19T00:16:01.817Z,21.30
2023-01-19T00:17:01.754Z,21.00
2023-01-19T00:18:01.754Z,21.90
2023-01-19T00:19:01.761Z,21.20
2023-01-19T00:20:01.734Z,20.40
2023-01-19T00:21:01.723Z,20.40
2023-01-19T00:22:01.725Z,21.60
2023-01-19T00:23:02.141Z,22.10
2023-01-19T00:24:01.696Z,21.90
2023-01-19T00:25:01.680Z,20.40
2023-01-19T00:26:01.706Z,22.40
2023-01-19T00:27:01.653Z,20.60
2023-01-19T00:28:02.001Z,21.40
2023-01-19T00:29:01.643Z,22.40
2023-01-19T00:30:01.635Z,21.50
2023-01-19T00:31:01.633Z,21.10
2023-01-19T00:32:01.622Z,22.20
2023-01-19T00:33:02.069Z,21.80
2023-01-19T00:34:01.607Z,21.30
2023-01-19T00:35:01.593Z,21.40
2023-01-19T00:36:01.592Z,21.90
2023-01-19T00:37:01.582Z,22.10
2023-01-19T00:38:01.585Z,21.20
2023-01-19T00:39:01.529Z,20.50
2023-01-19T00:40:01.585Z,21.10
2023-01-19T00:41:01.529Z,21.30
2023-01-19T00:42:01.511Z,21.30
2023-01-19T00:43:02.062Z,21.30
2023-01-19T00:44:01.501Z,22.50
2023-01-19T00:45:01.470Z,21.00
2023-01-19T00:46:01.565Z,21.40
2023-01-19T00:47:01.460Z,21.00
2023-01-19T00:48:01.460Z,21.00
2023-01-19T00:49:01.430Z,21.20
2023-01-19T00:50:01.433Z,21.20
2023-01-19T00:51:01.422Z,21.50
2023-01-19T00:52:01.406Z,21.60
2023-01-19T00:53:02.069Z,19.70
2023-01-19T00:54:01.382Z,20.60
2023-01-19T00:55:01.376Z,20.80
2023-01-19T00:56:01.404Z,20.20
2023-01-19T00:57:01.372Z,20.30
2023-01-19T00:58:01.356Z,19.30
2023-01-19T00:59:01.333Z,20.30
2023-01-19T01:00:01.333Z,21.40
2023-01-19T01:01:01.383Z,19.30
2023-01-19T01:02:01.423Z,19.40
2023-01-19T01:03:01.573Z,20.20
2023-01-19T01:04:01.283Z,21.00
2023-01-19T01:05:01.285Z,19.90
2023-01-19T01:06:01.280Z,19.30
2023-01-19T01:07:01.260Z,19.40
2023-01-19T01:08:01.255Z,19.80
2023-01-19T01:09:01.235Z,20.00
2023-01-19T01:10:01.234Z,18.70
2023-01-19T01:11:01.231Z,20.10
2023-01-19T01:12:01.218Z,19.70
2023-01-19T01:13:21.698Z,19.90
2023-01-19T01:14:02.185Z,18.40
2023-01-19T01:15:01.177Z,19.80
2023-01-19T01:16:01.178Z,22.00
2023-01-19T01:17:01.158Z,20.60
2023-01-19T01:18:01.149Z,18.80
2023-01-19T01:19:01.149Z,19.10
2023-01-19T01:20:01.137Z,19.50
2023-01-19T01:21:01.167Z,19.20
2023-01-19T01:22:01.108Z,18.40
2023-01-19T01:23:01.560Z,18.50
2023-01-19T01:24:01.097Z,18.30
2023-01-19T01:25:01.079Z,18.50
2023-01-19T01:26:01.080Z,18.60
2023-01-19T01:27:01.050Z,18.80
2023-01-19T01:28:01.059Z,19.90
2023-01-19T01:29:01.031Z,18.30
2023-01-19T01:30:01.028Z,18.80
2023-01-19T01:31:01.021Z,18.90
2023-01-19T01:32:01.007Z,17.90
2023-01-19T01:33:01.374Z,19.40
2023-01-19T01:34:00.998Z,19.60
2023-01-19T01:35:00.972Z,19.60
2023-01-19T01:36:00.972Z,18.70
2023-01-19T01:37:00.953Z,18.70
2023-01-19T01:38:00.951Z,19.20
2023-01-19T01:39:00.934Z,18.60
2023-01-19T01:40:00.930Z,18.20
2023-01-19T01:41:00.937Z,18.90
2023-01-19T01:42:00.913Z,18.90
2023-01-19T01:43:01.310Z,18.00
2023-01-19T01:44:00.892Z,18.40
2023-01-19T01:45:00.878Z,18.70
2023-01-19T01:46:00.937Z,19.20
2023-01-19T01:47:00.860Z,19.80
2023-01-19T01:48:00.845Z,18.30
2023-01-19T01:49:00.833Z,18.70
2023-01-19T01:50:00.827Z,20.10
2023-01-19T01:51:00.826Z,18.40
2023-01-19T01:52:00.804Z,18.90
2023-01-19T01:53:06.804Z,19.40
2023-01-19T01:54:01.786Z,19.20
2023-01-19T01:55:00.765Z,18.80
2023-01-19T01:56:00.776Z,19.20
2023-01-19T01:57:00.755Z,19.20
2023-01-19T01:58:00.751Z,19.40
2023-01-19T01:59:00.726Z,18.90
2023-01-19T02:00:00.749Z,18.80
2023-01-19T02:01:00.803Z,18.30
2023-01-19T02:02:00.780Z,19.20
2023-01-19T02:03:01.167Z,18.80
2023-01-19T02:04:00.700Z,18.80
2023-01-19T02:05:00.675Z,18.90
2023-01-19T02:06:00.688Z,19.70
2023-01-19T02:07:00.652Z,17.90
2023-01-19T02:08:00.653Z,19.10
2023-01-19T02:09:00.628Z,19.40
2023-01-19T02:10:00.618Z,19.20
2023-01-19T02:11:00.626Z,18.90
2023-01-19T02:12:00.610Z,18.80
2023-01-19T02:13:01.113Z,18.60
2023-01-19T02:14:00.590Z,18.20
2023-01-19T02:15:00.573Z,19.00
2023-01-19T02:16:00.580Z,18.40
2023-01-19T02:17:00.591Z,17.80
2023-01-19T02:18:00.552Z,19.30
2023-01-19T02:19:00.527Z,18.90
2023-01-19T02:20:00.521Z,18.40
2023-01-19T02:21:00.526Z,18.30
2023-01-19T02:22:00.504Z,19.50
2023-01-19T02:23:00.773Z,19.30
2023-01-19T02:24:00.481Z,18.70
2023-01-19T02:25:00.476Z,18.50
2023-01-19T02:26:00.473Z,18.90
2023-01-19T02:27:00.446Z,19.90
2023-01-19T02:28:00.442Z,20.10
2023-01-19T02:29:00.430Z,20.50
2023-01-19T02:30:00.424Z,19.00
2023-01-19T02:31:00.434Z,19.70
2023-01-19T02:32:00.403Z,20.30
2023-01-19T02:33:00.673Z,19.70
2023-01-19T02:34:00.397Z,20.60
2023-01-19T02:35:00.373Z,20.40
2023-01-19T02:36:00.378Z,19.60
2023-01-19T02:37:00.423Z,19.70
2023-01-19T02:38:00.365Z,19.20
2023-01-19T02:39:00.325Z,19.30
2023-01-19T02:40:00.319Z,20.50
2023-01-19T02:41:00.330Z,20.00
2023-01-19T02:42:00.295Z,18.70
2023-01-19T02:43:00.603Z,18.80
2023-01-19T02:44:00.282Z,18.30
2023-01-19T02:45:00.275Z,19.10
2023-01-19T02:46:00.337Z,19.70
2023-01-19T02:47:00.290Z,19.50
2023-01-19T02:48:00.248Z,20.10
2023-01-19T02:49:00.239Z,20.10
2023-01-19T02:50:00.220Z,19.70
2023-01-19T02:51:00.208Z,19.30
2023-01-19T02:52:00.214Z,20.40
2023-01-19T02:53:00.487Z,20.50
2023-01-19T02:54:00.183Z,19.40
2023-01-19T02:55:00.173Z,20.90
2023-01-19T02:56:00.149Z,19.90
2023-01-19T02:57:00.162Z,19.90
2023-01-19T02:58:00.143Z,20.00
2023-01-19T02:59:00.128Z,19.90
2023-01-19T03:00:00.132Z,20.70
2023-01-19T03:01:00.201Z,19.90
2023-01-19T03:02:00.245Z,19.90
2023-01-19T03:03:00.584Z,19.80
2023-01-19T03:04:00.085Z,21.70
2023-01-19T03:05:00.099Z,20.10
2023-01-19T03:06:00.051Z,20.20
2023-01-19T03:07:00.093Z,20.70
2023-01-19T03:08:00.054Z,19.90
2023-01-19T03:09:00.033Z,20.70
2023-01-19T03:10:00.012Z,20.10
2023-01-19T03:11:00.012Z,20.20
2023-01-19T03:12:00.051Z,20.30
2023-01-19T03:13:00.338Z,20.00
2023-01-19T03:14:01.856Z,20.30
2023-01-19T03:14:59.962Z,20.20
2023-01-19T03:15:59.985Z,21.00
2023-01-19T03:16:59.977Z,20.10
2023-01-19T03:17:59.941Z,19.60
2023-01-19T03:18:59.927Z,19.00
2023-01-19T03:19:59.914Z,20.20
2023-01-19T03:20:59.913Z,20.80
2023-01-19T03:21:59.915Z,20.40
2023-01-19T03:23:00.264Z,20.20
2023-01-19T03:23:59.874Z,21.40
2023-01-19T03:24:59.875Z,21.30
2023-01-19T03:25:59.855Z,20.50
2023-01-19T03:26:59.866Z,20.80
2023-01-19T03:27:59.845Z,22.00
2023-01-19T03:28:59.833Z,21.10
2023-01-19T03:29:59.823Z,21.20
2023-01-19T03:30:59.850Z,21.20
2023-01-19T03:31:59.809Z,21.00
2023-01-19T03:33:00.081Z,20.60
2023-01-19T03:33:59.776Z,20.90
2023-01-19T03:34:59.767Z,21.30
2023-01-19T03:35:59.755Z,20.60
2023-01-19T03:36:59.760Z,21.20
2023-01-19T03:37:59.742Z,21.40
2023-01-19T03:38:59.728Z,21.90
2023-01-19T03:39:59.718Z,20.90
2023-01-19T03:40:59.709Z,21.60
2023-01-19T03:41:59.709Z,22.20
2023-01-19T03:43:00.029Z,21.90
2023-01-19T03:43:59.677Z,22.10
2023-01-19T03:44:59.669Z,22.00
2023-01-19T03:45:59.663Z,22.00
2023-01-19T03:46:59.685Z,21.50
2023-01-19T03:47:59.649Z,20.90
2023-01-19T03:48:59.630Z,22.70
2023-01-19T03:49:59.611Z,21.70
2023-01-19T03:50:59.609Z,22.00
2023-01-19T03:51:59.632Z,21.50
2023-01-19T03:52:59.863Z,23.60
2023-01-19T03:53:59.573Z,22.90
2023-01-19T03:54:59.561Z,22.40
2023-01-19T03:55:59.561Z,22.00
2023-01-19T03:56:59.581Z,23.10
2023-01-19T03:57:59.533Z,21.90
2023-01-19T03:58:59.523Z,22.10
2023-01-19T03:59:59.512Z,21.80
2023-01-19T04:00:59.523Z,23.10
2023-01-19T04:01:59.609Z,21.70
2023-01-19T04:02:59.932Z,22.30
2023-01-19T04:03:59.477Z,22.90
2023-01-19T04:04:59.475Z,22.80
2023-01-19T04:05:59.452Z,22.70
2023-01-19T04:06:59.454Z,22.60
2023-01-19T04:07:59.434Z,21.70
2023-01-19T04:08:59.432Z,23.40
2023-01-19T04:09:59.419Z,22.50
2023-01-19T04:10:59.417Z,22.70
2023-01-19T04:11:59.411Z,22.90
2023-01-19T04:12:59.986Z,22.90
2023-01-19T04:13:59.372Z,22.40
2023-01-19T04:14:59.370Z,22.40
2023-01-19T04:15:59.367Z,23.00
2023-01-19T04:16:59.357Z,22.90
2023-01-19T04:17:59.365Z,23.20
2023-01-19T04:18:59.327Z,21.60
2023-01-19T04:19:59.307Z,23.70
2023-01-19T04:20:59.307Z,22.60
2023-01-19T04:21:59.308Z,23.60
2023-01-19T04:22:59.711Z,23.30
2023-01-19T04:23:59.292Z,22.50
2023-01-19T04:24:59.266Z,24.00
2023-01-19T04:25:59.248Z,23.00
2023-01-19T04:26:59.260Z,23.30
2023-01-19T04:27:59.239Z,24.10
2023-01-19T04:28:59.275Z,23.40
2023-01-19T04:29:59.209Z,24.60
2023-01-19T04:30:59.210Z,24.10
2023-01-19T04:31:59.199Z,24.20
2023-01-19T04:32:59.702Z,24.00
2023-01-19T04:33:59.170Z,23.70
2023-01-19T04:34:59.169Z,24.20
2023-01-19T04:35:59.155Z,23.10
2023-01-19T04:36:59.161Z,24.00
2023-01-19T04:37:59.131Z,24.40
2023-01-19T04:38:59.130Z,23.00
2023-01-19T04:39:59.116Z,25.70
2023-01-19T04:40:59.111Z,24.30
2023-01-19T04:41:59.103Z,25.20
2023-01-19T04:42:59.343Z,23.90
2023-01-19T04:43:59.076Z,23.60
2023-01-19T04:44:59.063Z,24.40
2023-01-19T04:45:59.061Z,24.10
2023-01-19T04:46:59.052Z,24.10
2023-01-19T04:47:59.036Z,24.10
2023-01-19T04:48:59.025Z,25.50
2023-01-19T04:49:59.010Z,24.70
2023-01-19T04:50:59.008Z,25.70
2023-01-19T04:51:59.005Z,25.10
2023-01-19T04:52:59.181Z,24.80
2023-01-19T04:53:59.036Z,25.40
2023-01-19T04:54:58.970Z,24.30
2023-01-19T04:55:58.962Z,23.90
2023-01-19T04:56:58.977Z,25.30
2023-01-19T04:57:58.934Z,25.90
2023-01-19T04:58:58.927Z,24.50
2023-01-19T04:59:58.907Z,25.40
2023-01-19T05:00:58.929Z,25.70
2023-01-19T05:01:58.943Z,25.50
2023-01-19T05:02:59.381Z,24.40
2023-01-19T05:03:58.868Z,25.50
2023-01-19T05:04:58.877Z,26.00
2023-01-19T05:05:58.944Z,26.30
2023-01-19T05:06:58.856Z,25.20
2023-01-19T05:07:58.827Z,24.40
2023-01-19T05:08:58.818Z,25.60
2023-01-19T05:09:58.813Z,25.20
2023-01-19T05:10:58.799Z,25.00
2023-01-19T05:11:58.799Z,24.50
2023-01-19T05:12:59.250Z,25.90
2023-01-19T05:13:58.771Z,25.30
2023-01-19T05:14:58.770Z,24.80
2023-01-19T05:15:58.757Z,24.00
2023-01-19T05:16:58.757Z,24.80
2023-01-19T05:17:58.730Z,25.20
2023-01-19T05:18:58.724Z,25.40
2023-01-19T05:19:58.708Z,25.40
2023-01-19T05:20:58.702Z,24.10
2023-01-19T05:21:58.705Z,25.10
2023-01-19T05:22:59.088Z,24.60
2023-01-19T05:23:58.669Z,24.10
2023-01-19T05:24:58.665Z,24.00
2023-01-19T05:25:58.644Z,23.80
2023-01-19T05:26:58.651Z,24.10
2023-01-19T05:27:58.622Z,24.40
2023-01-19T05:28:58.621Z,24.50
2023-01-19T05:29:58.602Z,24.00
2023-01-19T05:30:58.666Z,24.60
2023-01-19T05:31:58.606Z,23.70
2023-01-19T05:32:59.079Z,22.90
2023-01-19T05:33:58.595Z,23.40
2023-01-19T05:34:58.573Z,23.80
2023-01-19T05:35:58.556Z,24.90
2023-01-19T05:36:58.558Z,24.40
2023-01-19T05:37:58.546Z,24.70
2023-01-19T05:38:58.516Z,23.70
2023-01-19T05:39:58.514Z,23.30
2023-01-19T05:40:58.514Z,23.50
2023-01-19T05:41:58.494Z,25.20
2023-01-19T05:42:58.977Z,25.10
2023-01-19T05:43:58.465Z,23.50
2023-01-19T05:44:58.464Z,23.50
2023-01-19T05:45:58.443Z,23.10
2023-01-19T05:46:58.523Z,23.50
2023-01-19T05:47:58.423Z,22.90
2023-01-19T05:48:58.417Z,22.80
2023-01-19T05:49:58.405Z,23.10
2023-01-19T05:50:58.397Z,23.80
2023-01-19T05:51:58.399Z,22.30
2023-01-19T05:52:58.925Z,22.30
2023-01-19T05:53:58.366Z,23.00
2023-01-19T05:54:58.363Z,23.10
2023-01-19T05:55:58.347Z,22.60
2023-01-19T05:56:58.361Z,22.10
2023-01-19T05:57:58.330Z,22.10
2023-01-19T05:58:58.320Z,23.30
2023-01-19T05:59:58.298Z,22.20
2023-01-19T06:00:58.323Z,22.70
2023-01-19T06:01:58.311Z,23.90
2023-01-19T06:02:58.741Z,22.80
2023-01-19T06:03:58.262Z,22.70
2023-01-19T06:04:58.249Z,22.90
2023-01-19T06:05:58.241Z,23.70
2023-01-19T06:06:58.237Z,22.70
2023-01-19T06:07:58.256Z,23.10
2023-01-19T06:08:58.241Z,23.00
2023-01-19T06:09:58.201Z,22.20
2023-01-19T06:10:58.200Z,23.50
2023-01-19T06:11:58.190Z,23.40
2023-01-19T06:12:58.691Z,22.90
2023-01-19T06:13:58.173Z,23.00
2023-01-19T06:14:58.167Z,24.10
2023-01-19T06:15:58.172Z,23.20
2023-01-19T06:16:58.145Z,22.40
2023-01-19T06:17:58.137Z,22.50
2023-01-19T06:18:58.114Z,23.60
2023-01-19T06:19:58.115Z,23.50
2023-01-19T06:20:58.095Z,23.50
2023-01-19T06:21:58.082Z,23.80
2023-01-19T06:22:58.090Z,22.60
2023-01-19T06:23:58.057Z,24.20
2023-01-19T06:24:58.063Z,23.90
2023-01-19T06:25:58.045Z,23.20
2023-01-19T06:26:58.037Z,24.50
2023-01-19T06:27:58.035Z,24.10
2023-01-19T06:28:58.017Z,23.40
2023-01-19T06:29:57.997Z,23.90
2023-01-19T06:30:58.042Z,23.70
2023-01-19T06:31:58.004Z,23.20
2023-01-19T06:32:58.363Z,22.90
2023-01-19T06:33:57.966Z,22.80
2023-01-19T06:34:57.948Z,23.20
2023-01-19T06:35:57.955Z,24.10
2023-01-19T06:36:57.936Z,22.60
2023-01-19T06:37:57.977Z,22.40
2023-01-19T06:38:57.909Z,23.10
2023-01-19T06:39:57.902Z,22.10
2023-01-19T06:40:57.895Z,22.80
2023-01-19T06:41:57.878Z,22.50
2023-01-19T06:42:58.105Z,23.50
2023-01-19T06:43:57.871Z,23.00
2023-01-19T06:44:57.850Z,22.40
2023-01-19T06:45:57.895Z,22.20
2023-01-19T06:47:14.611Z,21.40
2023-01-19T06:47:58.838Z,22.10
2023-01-19T06:48:57.819Z,21.60
2023-01-19T06:49:57.801Z,21.00
2023-01-19T06:50:59.498Z,21.60
2023-01-19T06:51:57.779Z,22.30
2023-01-19T06:52:58.095Z,21.60
2023-01-19T06:53:57.760Z,21.40
2023-01-19T06:54:57.750Z,21.00
2023-01-19T06:55:57.756Z,22.60
2023-01-19T06:56:57.737Z,20.90
2023-01-19T06:57:57.693Z,21.20
2023-01-19T06:58:57.662Z,20.90
2023-01-19T06:59:57.710Z,22.00
2023-01-19T07:00:57.769Z,23.00
2023-01-19T07:01:57.867Z,21.50
2023-01-19T07:02:57.853Z,21.50
2023-01-19T07:03:57.665Z,22.50
2023-01-19T07:04:57.687Z,22.20
2023-01-19T07:05:57.642Z,22.20
2023-01-19T07:06:57.630Z,22.30
2023-01-19T07:07:57.636Z,21.20
2023-01-19T07:08:57.564Z,22.60
2023-01-19T07:09:57.608Z,22.80
2023-01-19T07:11:26.759Z,21.90
2023-01-19T07:11:58.545Z,20.90
2023-01-19T07:12:57.541Z,22.60
2023-01-19T07:13:57.533Z,22.00
2023-01-19T07:14:57.500Z,21.90
2023-01-19T07:15:57.489Z,21.70
2023-01-19T07:16:57.567Z,22.30
2023-01-19T07:17:57.477Z,21.80
2023-01-19T07:18:57.449Z,21.40
2023-01-19T07:19:57.447Z,21.10
2023-01-19T07:20:57.427Z,22.50
2023-01-19T07:21:57.427Z,21.70
2023-01-19T07:22:57.437Z,21.00
2023-01-19T07:23:57.422Z,21.20
2023-01-19T07:24:57.395Z,21.70
2023-01-19T07:25:57.390Z,21.40
2023-01-19T07:26:57.380Z,20.20
2023-01-19T07:27:57.402Z,22.20
2023-01-19T07:28:57.373Z,21.30
2023-01-19T07:29:57.355Z,21.60
2023-01-19T07:30:57.367Z,21.10
2023-01-19T07:31:57.333Z,20.90
2023-01-19T07:32:57.388Z,22.50
2023-01-19T07:33:57.301Z,21.40
2023-01-19T07:34:57.291Z,21.20
2023-01-19T07:35:57.281Z,20.70
2023-01-19T07:36:57.272Z,21.60
2023-01-19T07:37:57.277Z,20.80
2023-01-19T07:38:57.254Z,20.60
2023-01-19T07:39:57.366Z,20.70
2023-01-19T07:40:57.232Z,21.10
2023-01-19T07:41:57.247Z,20.50
2023-01-19T07:42:57.225Z,21.50
2023-01-19T07:43:57.216Z,20.80
2023-01-19T07:44:57.194Z,21.60
2023-01-19T07:45:57.267Z,21.30
2023-01-19T07:46:57.172Z,21.40
2023-01-19T07:47:57.181Z,22.00
2023-01-19T07:48:57.154Z,22.30
2023-01-19T07:49:57.254Z,21.60
2023-01-19T07:50:57.134Z,21.80
2023-01-19T07:51:57.135Z,21.50
2023-01-19T07:52:57.121Z,21.90
2023-01-19T07:53:57.112Z,22.30
2023-01-19T07:54:57.093Z,21.50
2023-01-19T07:55:57.095Z,21.70
2023-01-19T07:56:57.082Z,22.00
2023-01-19T07:57:57.105Z,22.10
2023-01-19T07:58:57.053Z,21.60
2023-01-19T07:59:57.046Z,22.70
2023-01-19T08:00:57.167Z,22.30
2023-01-19T08:01:58.276Z,21.80
2023-01-19T08:02:57.017Z,22.30
2023-01-19T08:03:57.006Z,20.80
2023-01-19T08:04:57.031Z,22.20
2023-01-19T08:05:57.028Z,22.90
2023-01-19T08:06:56.977Z,22.30
2023-01-19T08:07:56.975Z,21.50
2023-01-19T08:08:56.949Z,23.30
2023-01-19T08:09:56.938Z,21.20
2023-01-19T08:10:56.930Z,22.00
2023-01-19T08:11:56.962Z,22.60
2023-01-19T08:12:56.927Z,22.10
2023-01-19T08:13:56.899Z,21.80
2023-01-19T08:14:56.890Z,21.20
2023-01-19T08:15:56.959Z,21.40
2023-01-19T08:16:56.872Z,22.20
2023-01-19T08:17:56.869Z,22.40
2023-01-19T08:18:56.878Z,22.30
2023-01-19T08:19:56.841Z,21.30
2023-01-19T08:20:56.829Z,22.00
2023-01-19T08:21:56.820Z,20.50
2023-01-19T08:22:56.822Z,21.10
2023-01-19T08:23:56.842Z,21.40
2023-01-19T08:24:56.789Z,21.60
2023-01-19T08:25:56.781Z,21.20
2023-01-19T08:26:56.772Z,20.40
2023-01-19T08:27:56.785Z,19.50
2023-01-19T08:28:56.750Z,21.60
2023-01-19T08:29:56.753Z,21.10
2023-01-19T08:30:56.814Z,20.20
2023-01-19T08:31:56.834Z,19.70
2023-01-19T08:32:56.713Z,21.10
2023-01-19T08:33:56.702Z,19.80
2023-01-19T08:34:56.684Z,21.50
2023-01-19T08:35:56.691Z,20.60
2023-01-19T08:36:56.674Z,20.60
2023-01-19T08:37:56.674Z,21.50
2023-01-19T08:38:56.645Z,19.90
2023-01-19T08:39:56.645Z,20.60
2023-01-19T08:40:56.627Z,21.30
2023-01-19T08:41:56.640Z,21.00
2023-01-19T08:42:56.615Z,20.40
2023-01-19T08:43:56.596Z,19.80
2023-01-19T08:44:58.503Z,20.60
2023-01-19T08:45:56.646Z,21.30
2023-01-19T08:46:56.570Z,20.80
2023-01-19T08:47:56.560Z,20.10
2023-01-19T08:48:56.565Z,20.40
2023-01-19T08:49:56.547Z,19.90
2023-01-19T08:50:56.532Z,21.10
2023-01-19T08:51:56.519Z,18.70
2023-01-19T08:52:56.509Z,20.80
2023-01-19T08:53:56.520Z,19.80
2023-01-19T08:54:56.501Z,19.10
2023-01-19T08:55:56.483Z,19.20
2023-01-19T08:56:56.460Z,19.40
2023-01-19T08:57:56.468Z,19.80
2023-01-19T08:59:08.767Z,19.00
2023-01-19T08:59:57.443Z,19.90
2023-01-19T09:00:56.489Z,19.50
2023-01-19T09:01:56.631Z,20.80
2023-01-19T09:02:56.499Z,19.10
2023-01-19T09:03:56.422Z,19.70
2023-01-19T09:04:56.388Z,19.60
2023-01-19T09:05:56.379Z,19.70
2023-01-19T09:06:56.372Z,20.70
2023-01-19T09:07:56.359Z,21.00
2023-01-19T09:08:56.354Z,20.90
2023-01-19T09:09:56.351Z,21.10
2023-01-19T09:10:56.327Z,20.70
2023-01-19T09:11:56.326Z,21.00
2023-01-19T09:12:56.303Z,21.00
2023-01-19T09:13:56.311Z,21.50
2023-01-19T09:14:56.282Z,20.30
2023-01-19T09:15:56.298Z,21.30
2023-01-19T09:16:56.270Z,20.10
2023-01-19T09:17:56.255Z,21.90
2023-01-19T09:18:56.267Z,21.10
2023-01-19T09:19:56.256Z,21.60
2023-01-19T09:20:56.230Z,21.00
2023-01-19T09:21:56.214Z,19.60
2023-01-19T09:22:56.204Z,22.50
2023-01-19T09:23:56.222Z,23.00
2023-01-19T09:24:56.184Z,22.90
2023-01-19T09:25:56.177Z,23.50
2023-01-19T09:26:56.164Z,24.70
2023-01-19T09:27:56.153Z,25.60
2023-01-19T09:28:56.165Z,26.70
2023-01-19T09:29:56.165Z,27.10
2023-01-19T09:30:56.182Z,28.40
2023-01-19T09:31:56.164Z,28.40
2023-01-19T09:32:57.545Z,27.80
2023-01-19T09:33:56.114Z,29.10
2023-01-19T09:34:56.127Z,29.70
2023-01-19T09:35:56.107Z,30.40
2023-01-19T09:36:56.062Z,29.90
2023-01-19T09:37:56.067Z,30.40
2023-01-19T09:38:56.059Z,31.70
2023-01-19T09:39:56.167Z,32.40
2023-01-19T09:40:56.031Z,31.30
2023-01-19T09:41:56.010Z,31.40
2023-01-19T09:42:56.009Z,33.40
2023-01-19T09:43:56.137Z,32.30
2023-01-19T09:44:56.006Z,32.20
2023-01-19T09:45:55.979Z,32.70
2023-01-19T09:46:55.966Z,34.20
2023-01-19T09:47:55.961Z,31.70
2023-01-19T09:48:55.955Z,32.30
2023-01-19T09:49:55.952Z,31.90
2023-01-19T09:50:55.970Z,32.20
2023-01-19T09:51:55.921Z,31.40
2023-01-19T09:52:55.891Z,28.90
2023-01-19T09:53:55.984Z,30.70
2023-01-19T09:54:55.892Z,31.10
2023-01-19T09:55:55.879Z,31.50
2023-01-19T09:56:55.866Z,31.90
2023-01-19T09:57:55.852Z,31.50
2023-01-19T09:58:55.851Z,31.50
2023-01-19T09:59:55.831Z,29.70
2023-01-19T10:00:55.977Z,32.30
2023-01-19T10:01:55.851Z,30.20
2023-01-19T10:02:55.840Z,29.40
2023-01-19T10:03:55.812Z,29.00
2023-01-19T10:04:55.774Z,28.50
2023-01-19T10:05:55.773Z,29.10
2023-01-19T10:06:55.756Z,27.40
2023-01-19T10:07:55.744Z,28.20
2023-01-19T10:08:55.758Z,28.40
2023-01-19T10:09:55.767Z,27.10
2023-01-19T10:10:55.715Z,26.40
2023-01-19T10:11:55.718Z,27.20
2023-01-19T10:12:55.695Z,27.80
2023-01-19T10:13:55.724Z,26.80
2023-01-19T10:14:55.678Z,26.90
2023-01-19T10:15:55.700Z,26.50
2023-01-19T10:16:55.657Z,25.40
2023-01-19T10:17:55.649Z,26.00
2023-01-19T10:18:55.650Z,26.10
2023-01-19T10:19:55.629Z,25.20
2023-01-19T10:20:55.607Z,26.70
2023-01-19T10:21:55.621Z,24.40
2023-01-19T10:22:55.596Z,25.60
2023-01-19T10:23:55.639Z,25.60
2023-01-19T10:24:55.604Z,25.80
2023-01-19T10:25:55.651Z,25.70
2023-01-19T10:26:55.588Z,25.60
2023-01-19T10:27:55.558Z,26.80
2023-01-19T10:28:55.555Z,28.40
2023-01-19T10:29:55.536Z,27.10
2023-01-19T10:30:55.594Z,29.20
2023-01-19T10:31:55.622Z,30.10
2023-01-19T10:32:55.515Z,29.50
2023-01-19T10:33:55.511Z,30.70
2023-01-19T10:34:55.481Z,29.00
2023-01-19T10:35:55.509Z,30.80
2023-01-19T10:36:55.495Z,29.80
2023-01-19T10:37:55.489Z,30.50
2023-01-19T10:38:55.443Z,30.20
2023-01-19T10:39:55.442Z,31.60
2023-01-19T10:40:55.414Z,30.80
2023-01-19T10:41:55.409Z,30.70
2023-01-19T10:42:55.393Z,32.50
2023-01-19T10:43:55.408Z,30.80
2023-01-19T10:44:55.428Z,31.00
2023-01-19T10:45:55.405Z,30.50
2023-01-19T10:46:55.363Z,29.20
2023-01-19T10:47:55.355Z,29.70
2023-01-19T10:48:55.339Z,29.20
2023-01-19T10:49:55.328Z,29.50
2023-01-19T10:50:55.315Z,29.80
2023-01-19T10:51:55.339Z,29.70
2023-01-19T10:52:55.346Z,28.90
2023-01-19T10:53:55.304Z,32.20
2023-01-19T10:54:55.267Z,32.60
2023-01-19T10:55:55.327Z,32.30
2023-01-19T10:56:55.255Z,33.60
2023-01-19T10:57:55.246Z,33.20
2023-01-19T10:58:55.253Z,33.00
2023-01-19T10:59:55.259Z,31.10
2023-01-19T11:00:55.325Z,31.70
2023-01-19T11:01:55.436Z,31.20
2023-01-19T11:02:55.305Z,28.90
2023-01-19T11:03:55.210Z,29.20
2023-01-19T11:04:55.209Z,27.80
2023-01-19T11:05:55.181Z,28.10
2023-01-19T11:06:55.161Z,28.80
2023-01-19T11:07:55.156Z,28.70
2023-01-19T11:08:55.139Z,26.90
2023-01-19T11:09:55.128Z,27.00
2023-01-19T11:10:55.112Z,28.60
2023-01-19T11:11:55.109Z,26.50
2023-01-19T11:12:55.177Z,27.10
2023-01-19T11:13:55.091Z,27.60
2023-01-19T11:14:55.078Z,27.60
2023-01-19T11:15:55.063Z,25.20
2023-01-19T11:16:55.061Z,25.70
2023-01-19T11:17:55.040Z,25.90
2023-01-19T11:18:55.045Z,23.80
2023-01-19T11:19:55.025Z,24.60
2023-01-19T11:20:55.023Z,22.70
2023-01-19T11:21:55.004Z,24.00
2023-01-19T11:22:54.992Z,23.50
2023-01-19T11:23:54.991Z,24.00
2023-01-19T11:24:54.981Z,23.80
2023-01-19T11:25:54.969Z,23.30
2023-01-19T11:26:54.966Z,22.50
2023-01-19T11:27:54.942Z,20.60
2023-01-19T11:28:54.946Z,19.80
2023-01-19T11:29:54.914Z,21.50
2023-01-19T11:30:55.015Z,19.50
2023-01-19T11:31:54.931Z,18.80
2023-01-19T11:32:54.899Z,20.30
2023-01-19T11:33:54.912Z,19.10
2023-01-19T11:34:54.882Z,18.60
2023-01-19T11:35:54.864Z,18.90
2023-01-19T11:36:54.859Z,18.50
2023-01-19T11:37:54.841Z,18.70
2023-01-19T11:38:54.851Z,18.70
2023-01-19T11:39:54.829Z,18.10
2023-01-19T11:40:54.816Z,17.70
2023-01-19T11:41:54.795Z,18.00
2023-01-19T11:42:54.817Z,16.60
2023-01-19T11:43:54.795Z,17.50
2023-01-19T11:44:54.768Z,16.40
2023-01-19T11:45:54.794Z,17.00
2023-01-19T11:46:54.749Z,16.50
2023-01-19T11:47:54.746Z,15.40
2023-01-19T11:48:54.846Z,17.10
2023-01-19T11:49:54.718Z,15.70
2023-01-19T11:50:54.726Z,15.10
2023-01-19T11:51:54.690Z,14.70
2023-01-19T11:52:54.688Z,15.30
2023-01-19T11:53:54.674Z,15.80
2023-01-19T11:54:54.684Z,15.40
2023-01-19T11:55:54.689Z,15.50
2023-01-19T11:56:54.642Z,15.80
2023-01-19T11:57:54.884Z,15.60
2023-01-19T11:58:54.621Z,14.80
2023-01-19T11:59:54.644Z,15.40
2023-01-19T12:00:54.653Z,15.60
2023-01-19T12:01:54.619Z,15.80
2023-01-19T12:02:54.587Z,16.30
2023-01-19T12:03:54.856Z,16.80
2023-01-19T12:04:54.572Z,16.40
2023-01-19T12:05:54.551Z,17.00
2023-01-19T12:06:54.545Z,17.90
2023-01-19T12:07:54.545Z,20.50
2023-01-19T12:08:54.521Z,19.80
2023-01-19T12:09:54.526Z,16.70
2023-01-19T12:10:54.493Z,18.40
2023-01-19T12:11:54.484Z,17.40
2023-01-19T12:12:54.489Z,18.30
2023-01-19T12:13:54.464Z,24.70
2023-01-19T12:14:54.486Z,25.00
2023-01-19T12:15:54.714Z,30.20
2023-01-19T12:16:54.468Z,23.60
2023-01-19T12:17:54.455Z,20.90
2023-01-19T12:18:54.428Z,20.70
2023-01-19T12:19:55.218Z,21.30
2023-01-19T12:20:54.395Z,19.30
2023-01-19T12:21:54.383Z,21.40
2023-01-19T12:22:54.376Z,24.20
2023-01-19T12:23:54.364Z,20.70
2023-01-19T12:24:54.375Z,21.30
2023-01-19T12:25:54.984Z,24.20
2023-01-19T12:26:54.369Z,19.80
2023-01-19T12:27:54.317Z,19.10
2023-01-19T12:28:54.315Z,17.80
2023-01-19T12:29:54.315Z,18.20
2023-01-19T12:30:54.371Z,17.20
2023-01-19T12:31:54.374Z,18.60
2023-01-19T12:32:54.277Z,17.90
2023-01-19T12:33:54.262Z,18.30
2023-01-19T12:34:54.273Z,18.70
2023-01-19T12:35:54.248Z,21.70
2023-01-19T12:36:54.230Z,20.50
2023-01-19T12:37:54.221Z,20.30
2023-01-19T12:38:54.211Z,20.60
2023-01-19T12:39:54.214Z,23.80
2023-01-19T12:40:54.207Z,40.50
2023-01-19T12:41:54.223Z,30.80
2023-01-19T12:42:54.170Z,32.30
2023-01-19T12:43:54.161Z,26.80
2023-01-19T12:44:54.161Z,26.30
2023-01-19T12:45:54.155Z,33.90
2023-01-19T12:46:54.193Z,28.20
2023-01-19T12:47:54.855Z,29.00
2023-01-19T12:48:54.110Z,25.10
2023-01-19T12:49:54.119Z,25.60
2023-01-19T12:50:54.100Z,27.30
2023-01-19T12:51:54.076Z,26.10